Карточка аэропорта UHMM

Внимание!
Информация на этой странице в стадии наполнения.
Если вы не увидели какой-то информации, или заметили неточность - пожалуйста сообщите нам!
Спасибо!
Команда RU-STAFF
Название аэропортаСокол
Название аэропорта (англ.)Sokol
Превышение574 ft. (175 m.)
Координаты59°54.666', 150°43.26'
Высота перехода2150m
Эшелон переходаQFE>=733mm:FL090; QFE<733:FL100
Коды ответчика6540-6577
Зона ОрВДМагадан РПИ (UHMM)
Данные METARUHMM 271000Z 23001MPS 9999 BKN048 M19/M27 Q1010 RMK QFE743 R28/23001MPS
Проноз погоды (TAF)UERR 270800Z 2709/2809 27003G08MPS 9999 SCT023= UHMM 270749Z 2709/2815 35003G08MPS 9999 SCT030 OVC070 TEMPO 2709/2714 4000 -SHSN BKN020CB OVC030 FM271400 01005G12MPS 3100 -SHSN SCT011 OVC015CB TEMPO 2714/2810 34008MPS 0500 +SHSN BLSN VV004
NOTAMshow/hide NOTAM
AWOS   TABLE

Информация о ВПП


Диспетчерские позиции

Позывной Наименование органа УВД Частота
UHMM_APPМагадан-Подход119.3
UHMM_TWRМагадан-Вышка120.8



Спутниковое изображение